Woodbridge, Connecticut
Current Conditions -  °F | °C
As of 12:53 AM on Sunday 26 Oct 2014 (Local Time) from KHVN Reporting Station
Overcast Overcast  
Wind Chill: 61°   Ceiling: 6000
Heat Index: 61°   Visibility: 10mi
Dew Point: 48°   Wind: 0mph
Humidity: 62%   Direction: NA
Pressure: 29.53"   Gusts: NA
Location:  41.35°N, 73.01°W
Report Text: KHVN 260453Z AUTO 00000KT 10SM BKN060 OVC080 16/09 A2953 RMK AO2 SLP000 T01610089 401890067
Loading
Personal Weather Stations






























Interactive Weather Map
Tropical Storm Tracking
New forecast layout! Learn more

10-Day Weather Forecast

Advertisements
Track Severe Weather on mobile